sensor_id;sensor_type;location;lat;lon;timestamp;P1;durP1;ratioP1;P2;durP2;ratioP2
13805;SDS011;6974;53.606;9.872;2022-11-22T00:01:38;23.73;;;15.77;;
13805;SDS011;6974;53.606;9.872;2022-11-22T00:04:05;24.37;;;16.00;;
13805;SDS011;6974;53.606;9.872;2022-11-22T00:06:32;26.70;;;17.20;;
13805;SDS011;6974;53.606;9.872;2022-11-22T00:09:01;23.97;;;16.53;;
13805;SDS011;6974;53.606;9.872;2022-11-22T00:11:28;20.13;;;14.90;;
13805;SDS011;6974;53.606;9.872;2022-11-22T00:13:55;23.63;;;15.90;;
13805;SDS011;6974;53.606;9.872;2022-11-22T00:16:24;22.20;;;15.20;;
13805;SDS011;6974;53.606;9.872;2022-11-22T00:18:51;22.23;;;16.27;;
13805;SDS011;6974;53.606;9.872;2022-11-22T00:21:18;23.53;;;15.83;;
13805;SDS011;6974;53.606;9.872;2022-11-22T00:23:48;23.77;;;16.63;;
13805;SDS011;6974;53.606;9.872;2022-11-22T00:26:16;23.83;;;16.13;;
13805;SDS011;6974;53.606;9.872;2022-11-22T00:28:43;24.77;;;16.80;;
13805;SDS011;6974;53.606;9.872;2022-11-22T00:31:10;22.57;;;15.83;;
13805;SDS011;6974;53.606;9.872;2022-11-22T00:33:36;23.37;;;15.73;;
13805;SDS011;6974;53.606;9.872;2022-11-22T00:36:03;23.67;;;16.40;;
13805;SDS011;6974;53.606;9.872;2022-11-22T00:38:30;23.50;;;16.80;;
13805;SDS011;6974;53.606;9.872;2022-11-22T00:40:57;26.40;;;16.90;;
13805;SDS011;6974;53.606;9.872;2022-11-22T00:43:26;24.87;;;17.47;;
13805;SDS011;6974;53.606;9.872;2022-11-22T00:45:53;25.67;;;17.10;;
13805;SDS011;6974;53.606;9.872;2022-11-22T00:48:20;25.17;;;17.60;;
13805;SDS011;6974;53.606;9.872;2022-11-22T00:50:47;25.07;;;17.57;;
13805;SDS011;6974;53.606;9.872;2022-11-22T00:53:14;24.60;;;16.93;;
13805;SDS011;6974;53.606;9.872;2022-11-22T00:55:41;24.20;;;17.50;;
13805;SDS011;6974;53.606;9.872;2022-11-22T00:58:09;24.23;;;17.30;;
13805;SDS011;6974;53.606;9.872;2022-11-22T01:00:38;27.10;;;18.00;;
13805;SDS011;6974;53.606;9.872;2022-11-22T01:03:05;22.77;;;17.47;;
13805;SDS011;6974;53.606;9.872;2022-11-22T01:05:35;26.90;;;18.27;;
13805;SDS011;6974;53.606;9.872;2022-11-22T01:08:02;25.93;;;17.93;;
13805;SDS011;6974;53.606;9.872;2022-11-22T01:10:29;26.20;;;18.10;;
13805;SDS011;6974;53.606;9.872;2022-11-22T01:12:56;31.07;;;19.63;;
13805;SDS011;6974;53.606;9.872;2022-11-22T01:15:23;25.73;;;17.87;;
13805;SDS011;6974;53.606;9.872;2022-11-22T01:17:52;26.70;;;19.00;;
13805;SDS011;6974;53.606;9.872;2022-11-22T01:20:19;24.23;;;17.23;;
13805;SDS011;6974;53.606;9.872;2022-11-22T01:22:47;27.40;;;17.97;;
13805;SDS011;6974;53.606;9.872;2022-11-22T01:25:14;26.97;;;17.67;;
13805;SDS011;6974;53.606;9.872;2022-11-22T01:27:41;26.53;;;19.07;;
13805;SDS011;6974;53.606;9.872;2022-11-22T01:30:08;26.73;;;17.57;;
13805;SDS011;6974;53.606;9.872;2022-11-22T01:32:35;27.30;;;18.70;;
13805;SDS011;6974;53.606;9.872;2022-11-22T01:35:04;26.53;;;17.80;;
13805;SDS011;6974;53.606;9.872;2022-11-22T01:37:31;27.20;;;18.57;;
13805;SDS011;6974;53.606;9.872;2022-11-22T01:40:01;27.40;;;19.37;;
13805;SDS011;6974;53.606;9.872;2022-11-22T01:42:38;26.40;;;18.67;;
13805;SDS011;6974;53.606;9.872;2022-11-22T01:48:18;28.53;;;17.90;;
13805;SDS011;6974;53.606;9.872;2022-11-22T01:50:58;27.77;;;17.80;;
13805;SDS011;6974;53.606;9.872;2022-11-22T01:53:28;25.60;;;17.40;;
13805;SDS011;6974;53.606;9.872;2022-11-22T01:55:58;29.10;;;19.47;;
13805;SDS011;6974;53.606;9.872;2022-11-22T01:58:27;27.00;;;18.73;;
13805;SDS011;6974;53.606;9.872;2022-11-22T02:00:57;28.90;;;19.10;;
13805;SDS011;6974;53.606;9.872;2022-11-22T02:03:24;29.13;;;19.80;;
13805;SDS011;6974;53.606;9.872;2022-11-22T02:05:53;27.90;;;18.67;;
13805;SDS011;6974;53.606;9.872;2022-11-22T02:08:24;31.37;;;19.87;;
13805;SDS011;6974;53.606;9.872;2022-11-22T02:10:56;31.13;;;19.37;;
13805;SDS011;6974;53.606;9.872;2022-11-22T02:13:26;31.60;;;19.13;;
13805;SDS011;6974;53.606;9.872;2022-11-22T02:15:55;25.97;;;17.63;;
13805;SDS011;6974;53.606;9.872;2022-11-22T02:18:23;28.00;;;18.57;;
13805;SDS011;6974;53.606;9.872;2022-11-22T02:20:50;28.60;;;18.70;;
13805;SDS011;6974;53.606;9.872;2022-11-22T02:23:20;28.87;;;18.73;;
13805;SDS011;6974;53.606;9.872;2022-11-22T02:25:57;27.70;;;19.07;;
13805;SDS011;6974;53.606;9.872;2022-11-22T02:28:25;28.83;;;19.33;;
13805;SDS011;6974;53.606;9.872;2022-11-22T02:30:55;30.47;;;19.97;;
13805;SDS011;6974;53.606;9.872;2022-11-22T02:33:22;31.47;;;19.80;;
13805;SDS011;6974;53.606;9.872;2022-11-22T02:35:49;30.87;;;19.63;;
13805;SDS011;6974;53.606;9.872;2022-11-22T02:38:18;31.33;;;20.43;;
13805;SDS011;6974;53.606;9.872;2022-11-22T02:40:49;32.33;;;19.67;;
13805;SDS011;6974;53.606;9.872;2022-11-22T02:43:21;30.17;;;20.10;;
13805;SDS011;6974;53.606;9.872;2022-11-22T02:45:51;31.27;;;19.83;;
13805;SDS011;6974;53.606;9.872;2022-11-22T02:48:18;30.07;;;20.37;;
13805;SDS011;6974;53.606;9.872;2022-11-22T02:50:46;31.03;;;20.40;;
13805;SDS011;6974;53.606;9.872;2022-11-22T02:53:13;33.53;;;21.13;;
13805;SDS011;6974;53.606;9.872;2022-11-22T02:55:40;29.63;;;19.13;;
13805;SDS011;6974;53.606;9.872;2022-11-22T02:58:06;31.03;;;19.83;;
13805;SDS011;6974;53.606;9.872;2022-11-22T03:00:35;30.37;;;19.87;;
13805;SDS011;6974;53.606;9.872;2022-11-22T03:03:03;33.47;;;20.90;;
13805;SDS011;6974;53.606;9.872;2022-11-22T03:05:30;30.00;;;20.57;;
13805;SDS011;6974;53.606;9.872;2022-11-22T03:07:57;28.97;;;19.77;;
13805;SDS011;6974;53.606;9.872;2022-11-22T03:10:24;28.90;;;19.53;;
13805;SDS011;6974;53.606;9.872;2022-11-22T03:12:51;32.87;;;20.63;;
13805;SDS011;6974;53.606;9.872;2022-11-22T03:15:18;30.43;;;20.07;;
13805;SDS011;6974;53.606;9.872;2022-11-22T03:17:46;30.33;;;20.17;;
13805;SDS011;6974;53.606;9.872;2022-11-22T03:20:13;30.23;;;20.83;;
13805;SDS011;6974;53.606;9.872;2022-11-22T03:22:40;28.10;;;19.33;;
13805;SDS011;6974;53.606;9.872;2022-11-22T03:25:07;28.57;;;19.67;;
13805;SDS011;6974;53.606;9.872;2022-11-22T03:27:34;33.00;;;20.03;;
13805;SDS011;6974;53.606;9.872;2022-11-22T03:30:01;30.07;;;19.83;;
13805;SDS011;6974;53.606;9.872;2022-11-22T03:32:29;31.00;;;19.80;;
13805;SDS011;6974;53.606;9.872;2022-11-22T03:34:57;29.00;;;19.53;;
13805;SDS011;6974;53.606;9.872;2022-11-22T03:37:24;29.87;;;19.40;;
13805;SDS011;6974;53.606;9.872;2022-11-22T03:39:51;30.43;;;19.70;;
13805;SDS011;6974;53.606;9.872;2022-11-22T03:42:18;30.00;;;18.93;;
13805;SDS011;6974;53.606;9.872;2022-11-22T03:44:44;28.20;;;19.37;;
13805;SDS011;6974;53.606;9.872;2022-11-22T03:47:11;27.57;;;18.23;;
13805;SDS011;6974;53.606;9.872;2022-11-22T03:49:38;31.03;;;20.47;;
13805;SDS011;6974;53.606;9.872;2022-11-22T03:52:07;30.10;;;20.40;;
13805;SDS011;6974;53.606;9.872;2022-11-22T03:54:34;33.07;;;20.77;;
13805;SDS011;6974;53.606;9.872;2022-11-22T03:57:01;28.63;;;19.77;;
13805;SDS011;6974;53.606;9.872;2022-11-22T03:59:28;29.87;;;21.10;;
13805;SDS011;6974;53.606;9.872;2022-11-22T04:01:55;31.33;;;21.40;;
13805;SDS011;6974;53.606;9.872;2022-11-22T04:04:22;31.20;;;19.63;;
13805;SDS011;6974;53.606;9.872;2022-11-22T04:06:49;27.67;;;18.90;;
13805;SDS011;6974;53.606;9.872;2022-11-22T04:09:18;28.10;;;19.43;;
13805;SDS011;6974;53.606;9.872;2022-11-22T04:11:45;31.43;;;20.17;;
13805;SDS011;6974;53.606;9.872;2022-11-22T04:14:11;30.60;;;20.87;;
13805;SDS011;6974;53.606;9.872;2022-11-22T04:16:56;26.73;;;18.33;;
13805;SDS011;6974;53.606;9.872;2022-11-22T04:19:23;31.10;;;20.43;;
13805;SDS011;6974;53.606;9.872;2022-11-22T04:21:50;28.03;;;19.17;;
13805;SDS011;6974;53.606;9.872;2022-11-22T04:24:17;29.77;;;19.90;;
13805;SDS011;6974;53.606;9.872;2022-11-22T04:27:02;29.33;;;20.07;;
13805;SDS011;6974;53.606;9.872;2022-11-22T04:29:29;29.30;;;19.93;;
13805;SDS011;6974;53.606;9.872;2022-11-22T04:31:56;30.13;;;20.53;;
13805;SDS011;6974;53.606;9.872;2022-11-22T04:34:40;28.47;;;19.67;;
13805;SDS011;6974;53.606;9.872;2022-11-22T04:37:07;30.63;;;20.27;;
13805;SDS011;6974;53.606;9.872;2022-11-22T04:39:35;27.77;;;19.60;;
13805;SDS011;6974;53.606;9.872;2022-11-22T04:42:02;30.07;;;19.73;;
13805;SDS011;6974;53.606;9.872;2022-11-22T04:44:47;28.37;;;19.47;;
13805;SDS011;6974;53.606;9.872;2022-11-22T04:47:14;30.93;;;21.67;;
13805;SDS011;6974;53.606;9.872;2022-11-22T04:50:00;27.70;;;18.53;;
13805;SDS011;6974;53.606;9.872;2022-11-22T04:52:27;29.17;;;19.50;;
13805;SDS011;6974;53.606;9.872;2022-11-22T04:55:12;26.87;;;19.40;;
13805;SDS011;6974;53.606;9.872;2022-11-22T04:57:39;28.60;;;19.23;;
13805;SDS011;6974;53.606;9.872;2022-11-22T05:00:08;28.43;;;19.43;;
13805;SDS011;6974;53.606;9.872;2022-11-22T05:02:36;29.30;;;19.60;;
13805;SDS011;6974;53.606;9.872;2022-11-22T05:05:03;28.17;;;19.20;;
13805;SDS011;6974;53.606;9.872;2022-11-22T05:07:31;30.37;;;20.63;;
13805;SDS011;6974;53.606;9.872;2022-11-22T05:09:58;30.70;;;20.03;;
13805;SDS011;6974;53.606;9.872;2022-11-22T05:12:30;27.87;;;20.13;;
13805;SDS011;6974;53.606;9.872;2022-11-22T05:14:57;29.70;;;19.97;;
13805;SDS011;6974;53.606;9.872;2022-11-22T05:17:24;29.10;;;20.43;;
13805;SDS011;6974;53.606;9.872;2022-11-22T05:19:51;30.70;;;20.90;;
13805;SDS011;6974;53.606;9.872;2022-11-22T05:22:17;30.80;;;21.20;;
13805;SDS011;6974;53.606;9.872;2022-11-22T05:25:05;32.57;;;21.40;;
13805;SDS011;6974;53.606;9.872;2022-11-22T05:27:33;29.80;;;21.23;;
13805;SDS011;6974;53.606;9.872;2022-11-22T05:30:00;29.90;;;20.63;;
13805;SDS011;6974;53.606;9.872;2022-11-22T05:32:28;30.60;;;21.37;;
13805;SDS011;6974;53.606;9.872;2022-11-22T05:34:55;31.57;;;21.17;;
13805;SDS011;6974;53.606;9.872;2022-11-22T05:37:22;31.77;;;20.63;;
13805;SDS011;6974;53.606;9.872;2022-11-22T05:39:49;30.33;;;20.77;;
13805;SDS011;6974;53.606;9.872;2022-11-22T05:42:16;31.87;;;22.17;;
13805;SDS011;6974;53.606;9.872;2022-11-22T05:44:45;32.10;;;21.97;;
13805;SDS011;6974;53.606;9.872;2022-11-22T05:47:12;32.40;;;22.00;;
13805;SDS011;6974;53.606;9.872;2022-11-22T05:49:39;30.97;;;20.87;;
13805;SDS011;6974;53.606;9.872;2022-11-22T05:52:06;28.57;;;20.53;;
13805;SDS011;6974;53.606;9.872;2022-11-22T05:54:33;28.43;;;19.97;;
13805;SDS011;6974;53.606;9.872;2022-11-22T05:56:59;31.43;;;21.13;;
13805;SDS011;6974;53.606;9.872;2022-11-22T05:59:26;32.37;;;20.37;;
13805;SDS011;6974;53.606;9.872;2022-11-22T06:01:55;30.23;;;20.23;;
13805;SDS011;6974;53.606;9.872;2022-11-22T06:04:22;29.83;;;20.97;;
13805;SDS011;6974;53.606;9.872;2022-11-22T06:06:48;35.00;;;21.67;;
13805;SDS011;6974;53.606;9.872;2022-11-22T06:09:15;32.13;;;21.77;;
13805;SDS011;6974;53.606;9.872;2022-11-22T06:11:42;31.03;;;21.27;;
13805;SDS011;6974;53.606;9.872;2022-11-22T06:14:09;30.37;;;20.87;;
13805;SDS011;6974;53.606;9.872;2022-11-22T06:16:36;30.60;;;21.00;;
13805;SDS011;6974;53.606;9.872;2022-11-22T06:19:04;30.57;;;20.40;;
13805;SDS011;6974;53.606;9.872;2022-11-22T06:21:31;29.67;;;21.23;;
13805;SDS011;6974;53.606;9.872;2022-11-22T06:23:58;27.90;;;19.90;;
13805;SDS011;6974;53.606;9.872;2022-11-22T06:26:25;29.57;;;20.87;;
13805;SDS011;6974;53.606;9.872;2022-11-22T06:28:53;29.93;;;21.00;;
13805;SDS011;6974;53.606;9.872;2022-11-22T06:31:20;27.60;;;19.63;;
13805;SDS011;6974;53.606;9.872;2022-11-22T06:33:49;30.17;;;21.37;;
13805;SDS011;6974;53.606;9.872;2022-11-22T06:36:18;31.77;;;20.90;;
13805;SDS011;6974;53.606;9.872;2022-11-22T06:38:46;31.63;;;21.00;;
13805;SDS011;6974;53.606;9.872;2022-11-22T06:41:14;30.80;;;21.10;;
13805;SDS011;6974;53.606;9.872;2022-11-22T06:43:44;31.10;;;21.77;;
13805;SDS011;6974;53.606;9.872;2022-11-22T06:46:13;29.10;;;20.50;;
13805;SDS011;6974;53.606;9.872;2022-11-22T06:48:41;29.10;;;20.70;;
13805;SDS011;6974;53.606;9.872;2022-11-22T06:51:09;30.93;;;21.30;;
13805;SDS011;6974;53.606;9.872;2022-11-22T06:53:38;32.60;;;20.97;;
13805;SDS011;6974;53.606;9.872;2022-11-22T06:56:06;33.80;;;21.67;;
13805;SDS011;6974;53.606;9.872;2022-11-22T06:58:34;29.27;;;21.00;;
13805;SDS011;6974;53.606;9.872;2022-11-22T07:01:03;29.50;;;21.27;;
13805;SDS011;6974;53.606;9.872;2022-11-22T07:03:47;33.13;;;22.50;;
13805;SDS011;6974;53.606;9.872;2022-11-22T07:06:15;31.37;;;22.50;;
13805;SDS011;6974;53.606;9.872;2022-11-22T07:08:44;31.87;;;22.87;;
13805;SDS011;6974;53.606;9.872;2022-11-22T07:11:12;36.37;;;23.20;;
13805;SDS011;6974;53.606;9.872;2022-11-22T07:13:40;30.63;;;21.93;;
13805;SDS011;6974;53.606;9.872;2022-11-22T07:16:09;31.63;;;20.87;;
13805;SDS011;6974;53.606;9.872;2022-11-22T07:18:37;30.33;;;22.07;;
13805;SDS011;6974;53.606;9.872;2022-11-22T07:21:04;32.53;;;22.13;;
13805;SDS011;6974;53.606;9.872;2022-11-22T07:23:32;30.40;;;22.47;;
13805;SDS011;6974;53.606;9.872;2022-11-22T07:26:01;32.23;;;22.40;;
13805;SDS011;6974;53.606;9.872;2022-11-22T07:28:27;31.93;;;23.27;;
13805;SDS011;6974;53.606;9.872;2022-11-22T07:30:57;31.27;;;22.53;;
13805;SDS011;6974;53.606;9.872;2022-11-22T07:33:25;29.97;;;21.57;;
13805;SDS011;6974;53.606;9.872;2022-11-22T07:35:52;31.60;;;21.67;;
13805;SDS011;6974;53.606;9.872;2022-11-22T07:38:19;31.47;;;22.70;;
13805;SDS011;6974;53.606;9.872;2022-11-22T07:40:46;33.67;;;23.40;;
13805;SDS011;6974;53.606;9.872;2022-11-22T07:43:14;31.73;;;22.87;;
13805;SDS011;6974;53.606;9.872;2022-11-22T07:45:41;37.00;;;21.87;;
13805;SDS011;6974;53.606;9.872;2022-11-22T07:48:08;32.13;;;22.13;;
13805;SDS011;6974;53.606;9.872;2022-11-22T07:50:41;33.90;;;22.83;;
13805;SDS011;6974;53.606;9.872;2022-11-22T07:53:08;33.23;;;23.23;;
13805;SDS011;6974;53.606;9.872;2022-11-22T07:55:35;33.10;;;22.10;;
13805;SDS011;6974;53.606;9.872;2022-11-22T07:58:02;31.67;;;22.13;;
13805;SDS011;6974;53.606;9.872;2022-11-22T08:00:31;30.27;;;22.27;;
13805;SDS011;6974;53.606;9.872;2022-11-22T08:02:58;31.87;;;22.43;;
13805;SDS011;6974;53.606;9.872;2022-11-22T08:05:25;31.63;;;22.33;;
13805;SDS011;6974;53.606;9.872;2022-11-22T08:07:52;32.40;;;22.60;;
13805;SDS011;6974;53.606;9.872;2022-11-22T08:10:20;32.20;;;23.07;;
13805;SDS011;6974;53.606;9.872;2022-11-22T08:12:47;32.07;;;22.13;;
13805;SDS011;6974;53.606;9.872;2022-11-22T08:15:14;35.87;;;22.70;;
13805;SDS011;6974;53.606;9.872;2022-11-22T08:17:43;34.20;;;23.60;;
13805;SDS011;6974;53.606;9.872;2022-11-22T08:20:10;30.93;;;22.17;;
13805;SDS011;6974;53.606;9.872;2022-11-22T08:22:37;31.33;;;22.43;;
13805;SDS011;6974;53.606;9.872;2022-11-22T08:25:13;33.93;;;22.00;;
13805;SDS011;6974;53.606;9.872;2022-11-22T08:27:40;31.50;;;22.57;;
13805;SDS011;6974;53.606;9.872;2022-11-22T08:30:08;32.33;;;22.50;;
13805;SDS011;6974;53.606;9.872;2022-11-22T08:32:36;35.43;;;23.77;;
13805;SDS011;6974;53.606;9.872;2022-11-22T08:35:05;32.53;;;22.37;;
13805;SDS011;6974;53.606;9.872;2022-11-22T08:37:32;35.57;;;23.33;;
13805;SDS011;6974;53.606;9.872;2022-11-22T08:39:59;34.97;;;23.23;;
13805;SDS011;6974;53.606;9.872;2022-11-22T08:42:27;31.37;;;23.53;;
13805;SDS011;6974;53.606;9.872;2022-11-22T08:44:54;29.97;;;21.77;;
13805;SDS011;6974;53.606;9.872;2022-11-22T08:47:20;34.90;;;22.77;;
13805;SDS011;6974;53.606;9.872;2022-11-22T08:49:47;34.43;;;22.30;;
13805;SDS011;6974;53.606;9.872;2022-11-22T08:52:16;39.20;;;24.27;;
13805;SDS011;6974;53.606;9.872;2022-11-22T08:54:43;33.60;;;23.17;;
13805;SDS011;6974;53.606;9.872;2022-11-22T08:57:09;34.53;;;23.00;;
13805;SDS011;6974;53.606;9.872;2022-11-22T08:59:36;32.77;;;22.87;;
13805;SDS011;6974;53.606;9.872;2022-11-22T09:02:03;31.33;;;23.00;;
13805;SDS011;6974;53.606;9.872;2022-11-22T09:04:30;35.10;;;22.50;;
13805;SDS011;6974;53.606;9.872;2022-11-22T09:06:57;36.23;;;23.97;;
13805;SDS011;6974;53.606;9.872;2022-11-22T09:09:26;32.63;;;23.37;;
13805;SDS011;6974;53.606;9.872;2022-11-22T09:11:53;35.17;;;23.90;;
13805;SDS011;6974;53.606;9.872;2022-11-22T09:14:20;35.70;;;23.77;;
13805;SDS011;6974;53.606;9.872;2022-11-22T09:16:47;34.17;;;23.20;;
13805;SDS011;6974;53.606;9.872;2022-11-22T09:19:14;30.90;;;23.70;;
13805;SDS011;6974;53.606;9.872;2022-11-22T09:21:41;34.40;;;23.90;;
13805;SDS011;6974;53.606;9.872;2022-11-22T09:24:08;36.37;;;23.50;;
13805;SDS011;6974;53.606;9.872;2022-11-22T09:26:36;34.23;;;23.97;;
13805;SDS011;6974;53.606;9.872;2022-11-22T09:29:03;32.73;;;22.40;;
13805;SDS011;6974;53.606;9.872;2022-11-22T09:31:30;35.97;;;23.77;;
13805;SDS011;6974;53.606;9.872;2022-11-22T09:33:57;33.63;;;23.27;;
13805;SDS011;6974;53.606;9.872;2022-11-22T09:36:24;32.70;;;22.93;;
13805;SDS011;6974;53.606;9.872;2022-11-22T09:38:51;33.17;;;22.80;;
13805;SDS011;6974;53.606;9.872;2022-11-22T09:41:28;35.03;;;24.60;;
13805;SDS011;6974;53.606;9.872;2022-11-22T09:44:12;37.30;;;24.07;;
13805;SDS011;6974;53.606;9.872;2022-11-22T09:46:50;35.07;;;23.20;;
13805;SDS011;6974;53.606;9.872;2022-11-22T09:49:26;33.63;;;24.13;;
13805;SDS011;6974;53.606;9.872;2022-11-22T09:51:56;34.33;;;23.63;;
13805;SDS011;6974;53.606;9.872;2022-11-22T09:54:29;34.77;;;23.20;;
13805;SDS011;6974;53.606;9.872;2022-11-22T09:57:03;36.27;;;24.73;;
13805;SDS011;6974;53.606;9.872;2022-11-22T09:59:35;33.90;;;23.93;;
13805;SDS011;6974;53.606;9.872;2022-11-22T10:02:06;32.90;;;23.57;;
13805;SDS011;6974;53.606;9.872;2022-11-22T10:04:37;35.20;;;22.13;;
13805;SDS011;6974;53.606;9.872;2022-11-22T10:07:11;33.90;;;23.73;;
13805;SDS011;6974;53.606;9.872;2022-11-22T10:09:42;35.13;;;23.40;;
13805;SDS011;6974;53.606;9.872;2022-11-22T10:12:17;33.37;;;23.10;;
13805;SDS011;6974;53.606;9.872;2022-11-22T10:14:49;33.63;;;22.10;;
13805;SDS011;6974;53.606;9.872;2022-11-22T10:17:23;34.87;;;23.83;;
13805;SDS011;6974;53.606;9.872;2022-11-22T10:19:58;32.07;;;22.53;;
13805;SDS011;6974;53.606;9.872;2022-11-22T10:22:30;33.77;;;22.97;;
13805;SDS011;6974;53.606;9.872;2022-11-22T10:24:59;32.63;;;23.77;;
13805;SDS011;6974;53.606;9.872;2022-11-22T10:27:29;32.20;;;23.33;;
13805;SDS011;6974;53.606;9.872;2022-11-22T10:29:58;38.40;;;24.90;;
13805;SDS011;6974;53.606;9.872;2022-11-22T10:32:32;31.50;;;22.37;;
13805;SDS011;6974;53.606;9.872;2022-11-22T10:35:22;33.37;;;22.87;;
13805;SDS011;6974;53.606;9.872;2022-11-22T10:38:01;33.57;;;22.40;;
13805;SDS011;6974;53.606;9.872;2022-11-22T10:40:38;31.50;;;23.03;;
13805;SDS011;6974;53.606;9.872;2022-11-22T10:43:16;31.80;;;22.83;;
13805;SDS011;6974;53.606;9.872;2022-11-22T10:45:55;30.40;;;22.70;;
13805;SDS011;6974;53.606;9.872;2022-11-22T10:48:29;31.07;;;22.70;;
13805;SDS011;6974;53.606;9.872;2022-11-22T10:51:04;33.00;;;23.27;;
13805;SDS011;6974;53.606;9.872;2022-11-22T10:56:29;31.97;;;22.47;;
13805;SDS011;6974;53.606;9.872;2022-11-22T10:59:10;31.70;;;22.43;;
13805;SDS011;6974;53.606;9.872;2022-11-22T11:01:51;31.30;;;22.30;;
13805;SDS011;6974;53.606;9.872;2022-11-22T11:04:27;31.67;;;22.63;;
13805;SDS011;6974;53.606;9.872;2022-11-22T11:06:59;31.47;;;23.40;;
13805;SDS011;6974;53.606;9.872;2022-11-22T11:09:29;34.87;;;23.60;;
13805;SDS011;6974;53.606;9.872;2022-11-22T11:12:03;32.70;;;23.27;;
13805;SDS011;6974;53.606;9.872;2022-11-22T11:14:39;31.33;;;23.07;;
13805;SDS011;6974;53.606;9.872;2022-11-22T11:17:12;31.37;;;22.00;;
13805;SDS011;6974;53.606;9.872;2022-11-22T11:19:43;32.40;;;22.00;;
13805;SDS011;6974;53.606;9.872;2022-11-22T11:22:14;31.73;;;22.97;;
13805;SDS011;6974;53.606;9.872;2022-11-22T11:24:46;31.97;;;23.00;;
13805;SDS011;6974;53.606;9.872;2022-11-22T11:27:13;33.97;;;23.87;;
13805;SDS011;6974;53.606;9.872;2022-11-22T11:29:45;33.70;;;22.30;;
13805;SDS011;6974;53.606;9.872;2022-11-22T11:32:14;32.13;;;23.20;;
13805;SDS011;6974;53.606;9.872;2022-11-22T11:34:47;29.87;;;21.57;;
13805;SDS011;6974;53.606;9.872;2022-11-22T11:37:22;30.77;;;22.03;;
13805;SDS011;6974;53.606;9.872;2022-11-22T11:39:56;34.00;;;23.30;;
13805;SDS011;6974;53.606;9.872;2022-11-22T11:42:27;34.67;;;24.37;;
13805;SDS011;6974;53.606;9.872;2022-11-22T11:45:18;32.17;;;23.47;;
13805;SDS011;6974;53.606;9.872;2022-11-22T11:47:52;30.90;;;21.97;;
13805;SDS011;6974;53.606;9.872;2022-11-22T11:50:20;33.13;;;23.57;;
13805;SDS011;6974;53.606;9.872;2022-11-22T11:52:49;36.17;;;24.40;;
13805;SDS011;6974;53.606;9.872;2022-11-22T11:55:17;32.07;;;23.70;;
13805;SDS011;6974;53.606;9.872;2022-11-22T11:57:45;31.73;;;23.50;;
13805;SDS011;6974;53.606;9.872;2022-11-22T12:00:19;34.43;;;23.27;;
13805;SDS011;6974;53.606;9.872;2022-11-22T12:02:54;32.77;;;22.80;;
13805;SDS011;6974;53.606;9.872;2022-11-22T12:05:24;33.57;;;23.57;;
13805;SDS011;6974;53.606;9.872;2022-11-22T12:07:52;33.00;;;24.53;;
13805;SDS011;6974;53.606;9.872;2022-11-22T12:10:30;37.33;;;25.20;;
13805;SDS011;6974;53.606;9.872;2022-11-22T12:13:04;36.70;;;25.13;;
13805;SDS011;6974;53.606;9.872;2022-11-22T12:15:42;34.30;;;24.93;;
13805;SDS011;6974;53.606;9.872;2022-11-22T12:18:24;33.17;;;24.90;;
13805;SDS011;6974;53.606;9.872;2022-11-22T12:21:03;33.63;;;25.53;;
13805;SDS011;6974;53.606;9.872;2022-11-22T12:23:40;39.37;;;27.57;;
13805;SDS011;6974;53.606;9.872;2022-11-22T12:26:12;35.50;;;25.23;;
13805;SDS011;6974;53.606;9.872;2022-11-22T12:28:39;35.53;;;24.70;;
13805;SDS011;6974;53.606;9.872;2022-11-22T12:31:12;36.83;;;24.93;;
13805;SDS011;6974;53.606;9.872;2022-11-22T12:33:46;32.27;;;24.50;;
13805;SDS011;6974;53.606;9.872;2022-11-22T12:36:19;35.53;;;24.60;;
13805;SDS011;6974;53.606;9.872;2022-11-22T12:38:48;33.27;;;23.87;;
13805;SDS011;6974;53.606;9.872;2022-11-22T12:41:17;37.03;;;24.37;;
13805;SDS011;6974;53.606;9.872;2022-11-22T12:43:48;35.50;;;25.20;;
13805;SDS011;6974;53.606;9.872;2022-11-22T12:46:20;32.70;;;24.43;;
13805;SDS011;6974;53.606;9.872;2022-11-22T12:48:50;37.87;;;24.57;;
13805;SDS011;6974;53.606;9.872;2022-11-22T12:51:23;32.00;;;23.93;;
13805;SDS011;6974;53.606;9.872;2022-11-22T12:53:54;32.93;;;23.80;;
13805;SDS011;6974;53.606;9.872;2022-11-22T12:56:26;31.93;;;24.87;;
13805;SDS011;6974;53.606;9.872;2022-11-22T12:58:58;32.70;;;23.37;;
13805;SDS011;6974;53.606;9.872;2022-11-22T13:01:29;33.47;;;25.20;;
13805;SDS011;6974;53.606;9.872;2022-11-22T13:04:04;30.83;;;23.23;;
13805;SDS011;6974;53.606;9.872;2022-11-22T13:06:40;32.83;;;23.40;;
13805;SDS011;6974;53.606;9.872;2022-11-22T13:09:13;33.93;;;25.17;;
13805;SDS011;6974;53.606;9.872;2022-11-22T13:11:45;32.37;;;24.63;;
13805;SDS011;6974;53.606;9.872;2022-11-22T13:14:16;33.03;;;23.00;;
13805;SDS011;6974;53.606;9.872;2022-11-22T13:16:47;33.17;;;22.70;;
13805;SDS011;6974;53.606;9.872;2022-11-22T13:19:15;34.03;;;23.97;;
13805;SDS011;6974;53.606;9.872;2022-11-22T13:21:48;33.07;;;24.63;;
13805;SDS011;6974;53.606;9.872;2022-11-22T13:24:32;33.93;;;23.37;;
13805;SDS011;6974;53.606;9.872;2022-11-22T13:27:08;31.53;;;22.87;;
13805;SDS011;6974;53.606;9.872;2022-11-22T13:29:41;33.63;;;23.10;;
13805;SDS011;6974;53.606;9.872;2022-11-22T13:32:15;34.30;;;23.33;;
13805;SDS011;6974;53.606;9.872;2022-11-22T13:35:00;31.33;;;24.00;;
13805;SDS011;6974;53.606;9.872;2022-11-22T13:37:44;34.47;;;24.50;;
13805;SDS011;6974;53.606;9.872;2022-11-22T13:40:21;34.33;;;24.13;;
13805;SDS011;6974;53.606;9.872;2022-11-22T13:45:57;31.40;;;23.43;;
13805;SDS011;6974;53.606;9.872;2022-11-22T13:51:50;30.57;;;22.90;;
13805;SDS011;6974;53.606;9.872;2022-11-22T13:57:27;33.57;;;23.73;;
13805;SDS011;6974;53.606;9.872;2022-11-22T14:06:12;34.57;;;24.13;;
13805;SDS011;6974;53.606;9.872;2022-11-22T14:12:00;32.20;;;23.30;;
13805;SDS011;6974;53.606;9.872;2022-11-22T14:14:37;32.80;;;24.47;;
13805;SDS011;6974;53.606;9.872;2022-11-22T14:17:11;35.63;;;26.27;;
13805;SDS011;6974;53.606;9.872;2022-11-22T14:19:52;35.07;;;24.90;;
13805;SDS011;6974;53.606;9.872;2022-11-22T14:22:30;35.50;;;25.83;;
13805;SDS011;6974;53.606;9.872;2022-11-22T14:25:13;35.87;;;26.13;;
13805;SDS011;6974;53.606;9.872;2022-11-22T14:27:56;34.90;;;24.83;;
13805;SDS011;6974;53.606;9.872;2022-11-22T14:30:36;36.60;;;25.33;;
13805;SDS011;6974;53.606;9.872;2022-11-22T14:33:12;39.67;;;27.13;;
13805;SDS011;6974;53.606;9.872;2022-11-22T14:38:43;36.00;;;25.10;;
13805;SDS011;6974;53.606;9.872;2022-11-22T14:41:29;37.37;;;26.53;;
13805;SDS011;6974;53.606;9.872;2022-11-22T14:44:07;39.37;;;25.17;;
13805;SDS011;6974;53.606;9.872;2022-11-22T14:46:39;34.97;;;26.07;;
13805;SDS011;6974;53.606;9.872;2022-11-22T14:49:12;36.50;;;25.60;;
13805;SDS011;6974;53.606;9.872;2022-11-22T14:51:43;37.73;;;24.37;;
13805;SDS011;6974;53.606;9.872;2022-11-22T14:54:15;35.93;;;26.57;;
13805;SDS011;6974;53.606;9.872;2022-11-22T14:56:47;38.50;;;26.17;;
13805;SDS011;6974;53.606;9.872;2022-11-22T14:59:19;35.57;;;24.83;;
13805;SDS011;6974;53.606;9.872;2022-11-22T15:02:24;39.73;;;26.03;;
13805;SDS011;6974;53.606;9.872;2022-11-22T15:05:16;37.10;;;25.13;;
13805;SDS011;6974;53.606;9.872;2022-11-22T15:08:02;37.87;;;25.07;;
13805;SDS011;6974;53.606;9.872;2022-11-22T15:10:54;38.50;;;25.53;;
13805;SDS011;6974;53.606;9.872;2022-11-22T15:13:46;40.03;;;25.90;;
13805;SDS011;6974;53.606;9.872;2022-11-22T15:16:27;37.47;;;25.27;;
13805;SDS011;6974;53.606;9.872;2022-11-22T15:18:56;41.00;;;27.37;;
13805;SDS011;6974;53.606;9.872;2022-11-22T15:21:27;40.30;;;26.00;;